FC750X LFBO-LFBD
Flight info
| Callsign | FC750X |
|---|---|
| Flight time | 0h 33m |
| Altitude | 18000 |
| Route | LACOU7A LACOU G39 SECHE R17 MIRBA MIRBA2L |
| Aircraft | C750/M-SBDE3FGHRWXY/S |
Departure
| Time | 2026-05-08 19:56 |
|---|---|
| Airport | Toulouse-Blagnac Airport (LFBO) |
Arrival
| Time | 2026-05-08 20:29 |
|---|---|
| Airport | Bordeaux–Mérignac Airport (LFBD) |
| Time | Latitude | Longitude | Altitude | Speed | Heading |
|---|---|---|---|---|---|
| 2026-05-08 19:20 | 43.62195 | 1.37977 | 487 ft | 0 kts | 231° |
| 2026-05-08 19:40 | 43.62190 | 1.37968 | 491 ft | 3 kts | 231° |
| 2026-05-08 19:40 | 43.62190 | 1.37967 | 491 ft | 0 kts | 231° |
| 2026-05-08 19:41 | 43.62184 | 1.37952 | 487 ft | 0 kts | 248° |
| 2026-05-08 19:41 | 43.62174 | 1.37933 | 485 ft | 3 kts | 223° |
| 2026-05-08 19:41 | 43.62156 | 1.37923 | 489 ft | 0 kts | 192° |
| 2026-05-08 19:42 | 43.62144 | 1.37923 | 489 ft | 4 kts | 172° |
| 2026-05-08 19:42 | 43.62136 | 1.37927 | 490 ft | 1 kts | 158° |
| 2026-05-08 19:42 | 43.62122 | 1.37943 | 487 ft | 0 kts | 132° |
| 2026-05-08 19:42 | 43.62113 | 1.37969 | 490 ft | 4 kts | 101° |
| 2026-05-08 19:43 | 43.62112 | 1.37992 | 487 ft | 3 kts | 94° |
| 2026-05-08 19:43 | 43.62097 | 1.38025 | 486 ft | 4 kts | 139° |
| 2026-05-08 19:43 | 43.62072 | 1.38046 | 490 ft | 4 kts | 155° |
| 2026-05-08 19:43 | 43.62039 | 1.38053 | 490 ft | 5 kts | 185° |
| 2026-05-08 19:44 | 43.62004 | 1.38045 | 490 ft | 5 kts | 182° |
| 2026-05-08 19:44 | 43.61984 | 1.38052 | 490 ft | 4 kts | 153° |
| 2026-05-08 19:44 | 43.61953 | 1.38092 | 490 ft | 11 kts | 140° |
| 2026-05-08 19:44 | 43.61883 | 1.38121 | 490 ft | 10 kts | 188° |
| 2026-05-08 19:45 | 43.61846 | 1.38033 | 490 ft | 8 kts | 290° |
| 2026-05-08 19:45 | 43.61872 | 1.37998 | 487 ft | 8 kts | 330° |
| 2026-05-08 19:45 | 43.61916 | 1.37963 | 485 ft | 7 kts | 322° |
| 2026-05-08 19:45 | 43.61971 | 1.37908 | 490 ft | 10 kts | 325° |
| 2026-05-08 19:46 | 43.62026 | 1.37850 | 486 ft | 10 kts | 323° |
| 2026-05-08 19:46 | 43.62077 | 1.37800 | 489 ft | 9 kts | 322° |
| 2026-05-08 19:46 | 43.62167 | 1.37705 | 491 ft | 8 kts | 322° |
| 2026-05-08 19:47 | 43.62213 | 1.37658 | 486 ft | 8 kts | 324° |
| 2026-05-08 19:47 | 43.62255 | 1.37617 | 491 ft | 7 kts | 324° |
| 2026-05-08 19:47 | 43.62293 | 1.37576 | 491 ft | 7 kts | 321° |
| 2026-05-08 19:47 | 43.62329 | 1.37539 | 487 ft | 6 kts | 323° |
| 2026-05-08 19:48 | 43.62370 | 1.37494 | 491 ft | 8 kts | 319° |
| 2026-05-08 19:48 | 43.62412 | 1.37448 | 486 ft | 7 kts | 323° |
| 2026-05-08 19:48 | 43.62458 | 1.37399 | 491 ft | 11 kts | 320° |
| 2026-05-08 19:48 | 43.62516 | 1.37337 | 488 ft | 10 kts | 324° |
| 2026-05-08 19:49 | 43.62571 | 1.37281 | 491 ft | 9 kts | 322° |
| 2026-05-08 19:49 | 43.62622 | 1.37230 | 491 ft | 9 kts | 327° |
| 2026-05-08 19:49 | 43.62670 | 1.37187 | 491 ft | 8 kts | 324° |
| 2026-05-08 19:49 | 43.62710 | 1.37143 | 488 ft | 7 kts | 322° |
| 2026-05-08 19:50 | 43.62748 | 1.37104 | 484 ft | 6 kts | 324° |
| 2026-05-08 19:50 | 43.62782 | 1.37066 | 491 ft | 6 kts | 320° |
| 2026-05-08 19:50 | 43.62814 | 1.37035 | 491 ft | 5 kts | 327° |
| 2026-05-08 19:50 | 43.62843 | 1.37005 | 491 ft | 5 kts | 319° |
| 2026-05-08 19:51 | 43.62896 | 1.36946 | 486 ft | 14 kts | 322° |
| 2026-05-08 19:51 | 43.62974 | 1.36863 | 487 ft | 15 kts | 327° |
| 2026-05-08 19:51 | 43.63064 | 1.36769 | 491 ft | 16 kts | 321° |
| 2026-05-08 19:51 | 43.63152 | 1.36676 | 485 ft | 16 kts | 323° |
| 2026-05-08 19:52 | 43.63238 | 1.36590 | 491 ft | 15 kts | 322° |
| 2026-05-08 19:52 | 43.63318 | 1.36506 | 492 ft | 14 kts | 323° |
| 2026-05-08 19:52 | 43.63395 | 1.36429 | 488 ft | 13 kts | 325° |
| 2026-05-08 19:52 | 43.63467 | 1.36358 | 492 ft | 12 kts | 316° |
| 2026-05-08 19:53 | 43.63529 | 1.36285 | 486 ft | 11 kts | 324° |
| 2026-05-08 19:53 | 43.63591 | 1.36222 | 489 ft | 11 kts | 325° |
| 2026-05-08 19:53 | 43.63649 | 1.36164 | 492 ft | 10 kts | 322° |
| 2026-05-08 19:53 | 43.63700 | 1.36107 | 492 ft | 9 kts | 322° |
| 2026-05-08 19:54 | 43.63764 | 1.36043 | 492 ft | 13 kts | 326° |
| 2026-05-08 19:54 | 43.63812 | 1.35964 | 492 ft | 10 kts | 280° |
| 2026-05-08 19:54 | 43.63787 | 1.35886 | 483 ft | 9 kts | 229° |
| 2026-05-08 19:54 | 43.63751 | 1.35828 | 493 ft | 7 kts | 231° |
| 2026-05-08 19:55 | 43.63708 | 1.35803 | 493 ft | 7 kts | 173° |
| 2026-05-08 19:55 | 43.63563 | 1.35951 | 495 ft | 75 kts | 144° |
| 2026-05-08 19:55 | 43.62924 | 1.36690 | 592 ft | 144 kts | 141° |
| 2026-05-08 19:55 | 43.62037 | 1.37581 | 1081 ft | 170 kts | 147° |
| 2026-05-08 19:56 | 43.61039 | 1.38578 | 1763 ft | 183 kts | 142° |
| 2026-05-08 19:56 | 43.60009 | 1.39670 | 2524 ft | 190 kts | 142° |
| 2026-05-08 19:56 | 43.58936 | 1.40799 | 3296 ft | 198 kts | 143° |
| 2026-05-08 19:56 | 43.57820 | 1.41962 | 4080 ft | 205 kts | 143° |
| 2026-05-08 19:57 | 43.56595 | 1.43002 | 4805 ft | 214 kts | 163° |
| 2026-05-08 19:57 | 43.55123 | 1.42831 | 5479 ft | 217 kts | 201° |
| 2026-05-08 19:57 | 43.53943 | 1.41567 | 6251 ft | 218 kts | 233° |
| 2026-05-08 19:57 | 43.53472 | 1.39625 | 6962 ft | 222 kts | 266° |
| 2026-05-08 19:58 | 43.53893 | 1.37575 | 7724 ft | 230 kts | 300° |
| 2026-05-08 19:58 | 43.54889 | 1.35853 | 8623 ft | 230 kts | 309° |
| 2026-05-08 19:58 | 43.55927 | 1.34190 | 9537 ft | 228 kts | 309° |
| 2026-05-08 19:58 | 43.57068 | 1.32695 | 10292 ft | 230 kts | 329° |
| 2026-05-08 19:59 | 43.58536 | 1.31860 | 11049 ft | 227 kts | 338° |
| 2026-05-08 19:59 | 43.59985 | 1.31059 | 11852 ft | 223 kts | 336° |
| 2026-05-08 19:59 | 43.61408 | 1.30228 | 12625 ft | 221 kts | 335° |
| 2026-05-08 19:59 | 43.62822 | 1.29406 | 13380 ft | 221 kts | 335° |
| 2026-05-08 20:00 | 43.64247 | 1.28586 | 13993 ft | 227 kts | 334° |
| 2026-05-08 20:00 | 43.65801 | 1.27687 | 14012 ft | 257 kts | 335° |
| 2026-05-08 20:00 | 43.67475 | 1.26725 | 14011 ft | 262 kts | 335° |
| 2026-05-08 20:00 | 43.69172 | 1.25750 | 14013 ft | 266 kts | 335° |
| 2026-05-08 20:01 | 43.70881 | 1.24763 | 14011 ft | 267 kts | 335° |
| 2026-05-08 20:01 | 43.72596 | 1.23772 | 14012 ft | 267 kts | 335° |
| 2026-05-08 20:01 | 43.74314 | 1.22779 | 14011 ft | 268 kts | 335° |
| 2026-05-08 20:01 | 43.76034 | 1.21785 | 14008 ft | 268 kts | 335° |
| 2026-05-08 20:02 | 43.77731 | 1.20802 | 14009 ft | 268 kts | 335° |
| 2026-05-08 20:02 | 43.79455 | 1.19804 | 14009 ft | 268 kts | 335° |
| 2026-05-08 20:02 | 43.81176 | 1.18807 | 14008 ft | 268 kts | 335° |
| 2026-05-08 20:02 | 43.82897 | 1.17809 | 14009 ft | 269 kts | 335° |
| 2026-05-08 20:03 | 43.84636 | 1.16800 | 14008 ft | 270 kts | 335° |
| 2026-05-08 20:03 | 43.86372 | 1.15792 | 14011 ft | 270 kts | 335° |
| 2026-05-08 20:03 | 43.88104 | 1.14786 | 14010 ft | 270 kts | 335° |
| 2026-05-08 20:03 | 43.89836 | 1.13779 | 14000 ft | 274 kts | 334° |
| 2026-05-08 20:04 | 43.91705 | 1.12685 | 14026 ft | 309 kts | 334° |
| 2026-05-08 20:04 | 43.93774 | 1.11478 | 14029 ft | 343 kts | 335° |
| 2026-05-08 20:04 | 43.96077 | 1.10142 | 14026 ft | 372 kts | 335° |
| 2026-05-08 20:04 | 43.98553 | 1.08702 | 14017 ft | 397 kts | 335° |
| 2026-05-08 20:05 | 44.01169 | 1.07175 | 14012 ft | 418 kts | 335° |
| 2026-05-08 20:05 | 44.03899 | 1.05580 | 14004 ft | 430 kts | 335° |
| 2026-05-08 20:05 | 44.06673 | 1.03962 | 14003 ft | 434 kts | 335° |
| 2026-05-08 20:05 | 44.09461 | 1.02332 | 14001 ft | 436 kts | 335° |
| 2026-05-08 20:06 | 44.12230 | 1.00707 | 13994 ft | 437 kts | 335° |
| 2026-05-08 20:06 | 44.15070 | 0.99040 | 13994 ft | 437 kts | 335° |
| 2026-05-08 20:06 | 44.17841 | 0.97415 | 13987 ft | 438 kts | 335° |
| 2026-05-08 20:06 | 44.20648 | 0.95766 | 13986 ft | 438 kts | 335° |
| 2026-05-08 20:07 | 44.23462 | 0.94109 | 13991 ft | 440 kts | 335° |
| 2026-05-08 20:07 | 44.26196 | 0.92223 | 13964 ft | 437 kts | 327° |
| 2026-05-08 20:07 | 44.28623 | 0.89699 | 13973 ft | 434 kts | 316° |
| 2026-05-08 20:07 | 44.30685 | 0.86658 | 13974 ft | 431 kts | 307° |
| 2026-05-08 20:08 | 44.32337 | 0.83184 | 13979 ft | 427 kts | 296° |
| 2026-05-08 20:08 | 44.33686 | 0.79482 | 13985 ft | 427 kts | 294° |
| 2026-05-08 20:08 | 44.35040 | 0.75781 | 14000 ft | 427 kts | 295° |
| 2026-05-08 20:08 | 44.36398 | 0.72105 | 13993 ft | 426 kts | 295° |
| 2026-05-08 20:09 | 44.37729 | 0.68456 | 13990 ft | 426 kts | 294° |
| 2026-05-08 20:09 | 44.39064 | 0.64758 | 13990 ft | 426 kts | 294° |
| 2026-05-08 20:09 | 44.40404 | 0.61065 | 13984 ft | 426 kts | 295° |
| 2026-05-08 20:09 | 44.41777 | 0.57396 | 13977 ft | 427 kts | 297° |
| 2026-05-08 20:10 | 44.43529 | 0.54020 | 13969 ft | 431 kts | 308° |
| 2026-05-08 20:10 | 44.45687 | 0.51100 | 13967 ft | 434 kts | 319° |
| 2026-05-08 20:10 | 44.48196 | 0.48737 | 13971 ft | 436 kts | 329° |
| 2026-05-08 20:10 | 44.50941 | 0.46885 | 13975 ft | 438 kts | 333° |
| 2026-05-08 20:11 | 44.53708 | 0.45071 | 13981 ft | 437 kts | 333° |
| 2026-05-08 20:11 | 44.56427 | 0.43259 | 13985 ft | 437 kts | 333° |
| 2026-05-08 20:11 | 44.59180 | 0.41434 | 13985 ft | 437 kts | 333° |
| 2026-05-08 20:11 | 44.61938 | 0.39624 | 13986 ft | 438 kts | 334° |
| 2026-05-08 20:12 | 44.64713 | 0.37796 | 13990 ft | 439 kts | 333° |
| 2026-05-08 20:12 | 44.67468 | 0.35955 | 13978 ft | 438 kts | 333° |
| 2026-05-08 20:12 | 44.69997 | 0.33724 | 13750 ft | 412 kts | 321° |
| 2026-05-08 20:12 | 44.72002 | 0.31143 | 13038 ft | 382 kts | 311° |
| 2026-05-08 20:13 | 44.73599 | 0.28281 | 12225 ft | 363 kts | 302° |
| 2026-05-08 20:13 | 44.74803 | 0.25268 | 11439 ft | 345 kts | 293° |
| 2026-05-08 20:13 | 44.75764 | 0.22236 | 10684 ft | 331 kts | 292° |
| 2026-05-08 20:13 | 44.76705 | 0.19330 | 10039 ft | 319 kts | 292° |
| 2026-05-08 20:14 | 44.77595 | 0.16608 | 9967 ft | 294 kts | 292° |
| 2026-05-08 20:14 | 44.78435 | 0.13991 | 9973 ft | 294 kts | 292° |
| 2026-05-08 20:14 | 44.79271 | 0.11368 | 9973 ft | 294 kts | 292° |
| 2026-05-08 20:14 | 44.80112 | 0.08749 | 9975 ft | 294 kts | 292° |
| 2026-05-08 20:15 | 44.80945 | 0.06160 | 9982 ft | 294 kts | 292° |
| 2026-05-08 20:15 | 44.81814 | 0.03441 | 9993 ft | 321 kts | 292° |
| 2026-05-08 20:15 | 44.82780 | 0.00408 | 9996 ft | 355 kts | 292° |
| 2026-05-08 20:15 | 44.83820 | -0.02831 | 9996 ft | 354 kts | 292° |
| 2026-05-08 20:16 | 44.84789 | -0.05830 | 9946 ft | 318 kts | 292° |
| 2026-05-08 20:16 | 44.85656 | -0.08553 | 9828 ft | 291 kts | 291° |
| 2026-05-08 20:16 | 44.86455 | -0.11073 | 9614 ft | 273 kts | 291° |
| 2026-05-08 20:16 | 44.87222 | -0.13490 | 8921 ft | 268 kts | 291° |
| 2026-05-08 20:17 | 44.87965 | -0.15824 | 8147 ft | 261 kts | 292° |
| 2026-05-08 20:17 | 44.88626 | -0.18158 | 7336 ft | 252 kts | 281° |
| 2026-05-08 20:17 | 44.88674 | -0.20594 | 6551 ft | 246 kts | 264° |
| 2026-05-08 20:17 | 44.88522 | -0.22965 | 5821 ft | 241 kts | 263° |
| 2026-05-08 20:18 | 44.88395 | -0.25309 | 5075 ft | 238 kts | 266° |
| 2026-05-08 20:18 | 44.88366 | -0.27631 | 4334 ft | 236 kts | 268° |
| 2026-05-08 20:18 | 44.88366 | -0.29943 | 3589 ft | 235 kts | 268° |
| 2026-05-08 20:18 | 44.88341 | -0.32244 | 2989 ft | 230 kts | 267° |
| 2026-05-08 20:19 | 44.88311 | -0.34285 | 2948 ft | 187 kts | 267° |
| 2026-05-08 20:19 | 44.88284 | -0.36104 | 2959 ft | 186 kts | 267° |
| 2026-05-08 20:19 | 44.88258 | -0.37915 | 2966 ft | 185 kts | 267° |
| 2026-05-08 20:19 | 44.88233 | -0.39720 | 2969 ft | 183 kts | 267° |
| 2026-05-08 20:20 | 44.88208 | -0.41520 | 2970 ft | 184 kts | 267° |
| 2026-05-08 20:20 | 44.88184 | -0.43293 | 2971 ft | 184 kts | 267° |
| 2026-05-08 20:20 | 44.88159 | -0.45095 | 2973 ft | 184 kts | 267° |
| 2026-05-08 20:20 | 44.88133 | -0.46896 | 2974 ft | 183 kts | 267° |
| 2026-05-08 20:21 | 44.88107 | -0.48697 | 2977 ft | 183 kts | 267° |
| 2026-05-08 20:21 | 44.88081 | -0.50498 | 2976 ft | 184 kts | 267° |
| 2026-05-08 20:21 | 44.88055 | -0.52299 | 2979 ft | 184 kts | 267° |
| 2026-05-08 20:21 | 44.88028 | -0.54101 | 2979 ft | 184 kts | 267° |
| 2026-05-08 20:22 | 44.88001 | -0.55899 | 2976 ft | 184 kts | 267° |
| 2026-05-08 20:22 | 44.87974 | -0.57701 | 2977 ft | 183 kts | 267° |
| 2026-05-08 20:22 | 44.87946 | -0.59501 | 2974 ft | 183 kts | 267° |
| 2026-05-08 20:22 | 44.87928 | -0.60696 | 2977 ft | 184 kts | 267° |
| 2026-05-08 20:23 | 44.87890 | -0.63097 | 2975 ft | 184 kts | 267° |
| 2026-05-08 20:23 | 44.87862 | -0.64880 | 2909 ft | 183 kts | 267° |
| 2026-05-08 20:23 | 44.87834 | -0.66679 | 2803 ft | 183 kts | 267° |
| 2026-05-08 20:23 | 44.87805 | -0.68478 | 2701 ft | 183 kts | 267° |
| 2026-05-08 20:24 | 44.87776 | -0.70271 | 2603 ft | 183 kts | 267° |
| 2026-05-08 20:24 | 44.87746 | -0.72069 | 2502 ft | 183 kts | 267° |
| 2026-05-08 20:24 | 44.87717 | -0.73861 | 2401 ft | 183 kts | 267° |
| 2026-05-08 20:24 | 44.87686 | -0.75658 | 2302 ft | 183 kts | 267° |
| 2026-05-08 20:25 | 44.87656 | -0.77447 | 2204 ft | 182 kts | 268° |
| 2026-05-08 20:25 | 44.87626 | -0.79242 | 2105 ft | 183 kts | 268° |
| 2026-05-08 20:25 | 44.87595 | -0.81033 | 2004 ft | 183 kts | 268° |
| 2026-05-08 20:25 | 44.87564 | -0.82823 | 1983 ft | 183 kts | 268° |
| 2026-05-08 20:26 | 44.87390 | -0.84542 | 1924 ft | 172 kts | 243° |
| 2026-05-08 20:26 | 44.86574 | -0.85384 | 1751 ft | 140 kts | 181° |
| 2026-05-08 20:26 | 44.85747 | -0.84869 | 1639 ft | 129 kts | 134° |
| 2026-05-08 20:26 | 44.85382 | -0.83716 | 1730 ft | 131 kts | 104° |
| 2026-05-08 20:27 | 44.85150 | -0.82466 | 1921 ft | 133 kts | 107° |
| 2026-05-08 20:27 | 44.84904 | -0.81194 | 1871 ft | 133 kts | 106° |
| 2026-05-08 20:27 | 44.84646 | -0.79941 | 1681 ft | 133 kts | 107° |
| 2026-05-08 20:27 | 44.84377 | -0.78688 | 1446 ft | 135 kts | 108° |
| 2026-05-08 20:28 | 44.84082 | -0.77443 | 1192 ft | 132 kts | 109° |
| 2026-05-08 20:28 | 44.83827 | -0.76205 | 924 ft | 133 kts | 103° |
| 2026-05-08 20:28 | 44.83576 | -0.74930 | 577 ft | 136 kts | 108° |
| 2026-05-08 20:28 | 44.83314 | -0.73671 | 325 ft | 131 kts | 107° |
| 2026-05-08 20:29 | 44.83061 | -0.72472 | 168 ft | 125 kts | 107° |
| 2026-05-08 20:29 | 44.82858 | -0.71493 | 167 ft | 72 kts | 107° |
| 2026-05-08 20:29 | 44.82807 | -0.71184 | 165 ft | 13 kts | 67° |
| 2026-05-08 20:29 | 44.82849 | -0.71107 | 166 ft | 0 kts | 55° |
| 2026-05-08 20:30 | 44.82859 | -0.71090 | 167 ft | 6 kts | 48° |
| 2026-05-08 20:30 | 44.82901 | -0.71033 | 167 ft | 13 kts | 44° |
| 2026-05-08 20:30 | 44.82931 | -0.70922 | 167 ft | 12 kts | 100° |
| 2026-05-08 20:30 | 44.82912 | -0.70811 | 167 ft | 12 kts | 93° |
| 2026-05-08 20:31 | 44.82881 | -0.70647 | 168 ft | 18 kts | 107° |
| 2026-05-08 20:31 | 44.82845 | -0.70482 | 169 ft | 17 kts | 106° |
| 2026-05-08 20:31 | 44.82812 | -0.70322 | 169 ft | 17 kts | 108° |
| 2026-05-08 20:31 | 44.82780 | -0.70170 | 169 ft | 16 kts | 106° |
| 2026-05-08 20:32 | 44.82749 | -0.70024 | 170 ft | 15 kts | 106° |
| 2026-05-08 20:32 | 44.82718 | -0.69884 | 170 ft | 15 kts | 106° |
| 2026-05-08 20:32 | 44.82730 | -0.69764 | 170 ft | 3 kts | 41° |
| 2026-05-08 20:32 | 44.82754 | -0.69753 | 170 ft | 4 kts | 5° |
| 2026-05-08 20:33 | 44.82774 | -0.69748 | 170 ft | 3 kts | 20° |
| 2026-05-08 20:33 | 44.82796 | -0.69724 | 169 ft | 5 kts | 43° |
| 2026-05-08 20:33 | 44.82826 | -0.69706 | 169 ft | 0 kts | 9° |